Details From LEXJ - Santander
To LECO - A Coruna
Flight Number -
Tags generated
Created
Modified
Stats Distance 199 nm / 369 km
Max Altitude 22,400 ft / 6,828 m
Waypoints 3
Social Downloads 1
Likes 0
Share VATSIM

Download

Looking for another format? Having issues loading an existing format? Contact us
Advertisement - Login to hide

Notes

Basic altitude profile: - Ascent Rate: 2500ft/min - Ascent Speed: 250kts - Cruise Altitude: 35000ft - Cruise Speed: 420kts - Descent Rate: 1500ft/min - Descent Speed: 250kts

Route

LEXJ RATPO LECO

ID Type Via Altitude (ft/m) Position (lat/lon) Dist (leg/tot) Name
O LEXJ APT - 0 / 0 43.42719 / -3.82047 - / 0 nm Santander
RATPO FIX - 22,400 / 6,828 43.31711 / -5.98170 94 / 94 nm
O LECO APT - 0 / 0 43.30226 / -8.37709 104 / 199 nm A Coruna

Altitude Profile

Advertisement - Login to hide

Weather


0- 5 10 15 20 25 30 35+ Temperature / °C

Clouds and Precipitation
Forecast for 2018-08-21 12:00 UTC. Updated 2 hours ago

Ground ~20,000 ft ~40,000 ft Winds

LEXJ

Details ICAO LEXJ (SDR)
Name Santander
Region Spain
Timezone Europe/Madrid (UTC+2.0)
Stats Elevation 16 ft / 5 m (AMSL)
Location 43.426900° -3.820000°
Runways 1
Magnetic Variation 0.825° W

METAR

LEXJ 211130Z 04008KT 350V100 CAVOK 24/20 Q1018

Decode

TAF

TAF LEXJ 210800Z 2109/2209 05010KT CAVOK TX26/2114Z TN17/2206Z TEMPO 2122/2209 VRB05KT PROB30 TEMPO 2122/2206 3000 BR

Decode

Departure Runways

ID Width Length Bearing (true/mag) Surface Threshold Overrun Markings Lighting
11 148 ft / 45 m 7,619 ft / 2,322 m 110.20° / 111.03° ASPHALT 0 ft / 0 m 0 ft / 0 m PREC-APP EDGE THRESHOLD REIL-OMNI
29 148 ft / 45 m 7,619 ft / 2,322 m 290.22° / 291.05° ASPHALT 0 ft / 0 m 0 ft / 0 m PREC-APP EDGE THRESHOLD REIL-OMNI

LECO

Details ICAO LECO (LCG)
Name A Coruna
Region Spain
Timezone Europe/Madrid (UTC+2.0)
Stats Elevation 330 ft / 101 m (AMSL)
Location 43.301900° -8.377220°
Runways 1
Magnetic Variation 2.300° W

METAR

LECO 211130Z 03004KT 360V070 CAVOK 27/18 Q1016 NOSIG

Decode

TAF

TAF LECO 210800Z 2109/2209 03007KT CAVOK TX31/2114Z TN17/2206Z PROB40 TEMPO 2200/2206 3000 BR

Decode

Destination Runways

ID Width Length Bearing (true/mag) Surface Threshold Overrun Markings Lighting
03 148 ft / 45 m 6,364 ft / 1,940 m 30.94° / 33.24° ASPHALT 0 ft / 0 m 0 ft / 0 m PREC-APP CENTERLINE EDGE THRESHOLD REIL-OMNI
21 148 ft / 45 m 6,364 ft / 1,940 m 210.94° / 213.24° ASPHALT 0 ft / 0 m 0 ft / 0 m PREC-APP CENTERLINE EDGE THRESHOLD REIL-OMNI

Approach Navaids

Runway Type Ident Frequency Range Bearing (true/mag) Slope Elevation
21 GS LCO 109.90 MHz 10 nm / 19 km 210.94° / 213.24 ° 3.00° 330 ft / 101 m (AMSL)
21 DME LCO 109.90 MHz 18 nm / 33 km - - 293 ft / 89 m (AMSL)
21 LOC-ILS LCO 109.90 MHz 18 nm / 33 km 210.94° / 213.24 ° - 330 ft / 101 m (AMSL)

Popular Alternatives